createdAt,value
2018-11-27T00:00:41.187Z,68.72
2018-11-27T00:03:09.459Z,68.06
2018-11-27T00:05:38.813Z,68.09
2018-11-27T00:08:07.680Z,68.88
2018-11-27T00:10:38.478Z,68.84
2018-11-27T00:13:06.784Z,68.70
2018-11-27T00:15:35.345Z,69.37
2018-11-27T00:18:03.632Z,69.07
2018-11-27T00:20:31.886Z,68.95
2018-11-27T00:23:00.132Z,69.00
2018-11-27T00:25:28.426Z,69.42
2018-11-27T00:27:56.699Z,69.17
2018-11-27T00:30:24.931Z,68.64
2018-11-27T00:32:53.174Z,69.03
2018-11-27T00:35:21.380Z,68.69
2018-11-27T00:37:50.620Z,68.72
2018-11-27T00:40:20.446Z,68.84
2018-11-27T00:42:48.687Z,69.63
2018-11-27T00:45:17.900Z,69.06
2018-11-27T00:47:47.458Z,69.13
2018-11-27T00:50:18.756Z,68.82
2018-11-27T00:52:47.194Z,68.89
2018-11-27T00:55:16.352Z,68.99
2018-11-27T00:57:45.667Z,69.30
2018-11-27T01:00:15.696Z,69.52
2018-11-27T01:02:43.902Z,69.08
2018-11-27T01:05:15.997Z,69.53
2018-11-27T01:07:44.261Z,69.38
2018-11-27T01:10:16.700Z,68.95
2018-11-27T01:12:45.010Z,69.38
2018-11-27T01:15:13.947Z,69.91
2018-11-27T01:17:43.582Z,70.31
2018-11-27T01:20:16.062Z,70.07
2018-11-27T01:22:44.345Z,70.12
2018-11-27T01:25:12.726Z,70.25
2018-11-27T01:27:40.984Z,70.37
2018-11-27T01:30:16.118Z,71.15
2018-11-27T01:32:51.410Z,70.98
2018-11-27T01:35:20.966Z,71.64
2018-11-27T01:37:50.247Z,71.36
2018-11-27T01:40:20.618Z,72.08
2018-11-27T01:42:49.945Z,71.95
2018-11-27T01:45:19.355Z,72.33
2018-11-27T01:47:47.903Z,72.11
2018-11-27T01:50:23.288Z,72.36
2018-11-27T01:52:51.576Z,73.05
2018-11-27T01:55:21.660Z,72.81
2018-11-27T01:57:49.904Z,72.94
2018-11-27T02:00:25.545Z,72.48
2018-11-27T02:02:54.419Z,73.09
2018-11-27T02:05:23.296Z,72.93
2018-11-27T02:07:51.596Z,72.53
2018-11-27T02:10:20.112Z,72.43
2018-11-27T02:12:49.223Z,72.43
2018-11-27T02:15:19.621Z,72.35
2018-11-27T02:17:47.921Z,72.01
2018-11-27T02:20:16.205Z,72.60
2018-11-27T02:22:44.448Z,72.89
2018-11-27T02:25:15.629Z,73.69
2018-11-27T02:27:43.951Z,72.98
2018-11-27T02:30:14.403Z,73.10
2018-11-27T02:32:42.679Z,72.65
2018-11-27T02:35:12.177Z,73.33
2018-11-27T02:37:40.415Z,73.06
2018-11-27T02:40:16.622Z,73.45
2018-11-27T02:42:44.899Z,73.52
2018-11-27T02:45:17.550Z,73.47
2018-11-27T02:47:46.389Z,73.89
2018-11-27T02:50:16.861Z,74.14
2018-11-27T02:52:45.119Z,73.73
2018-11-27T02:55:14.273Z,74.05
2018-11-27T02:57:42.612Z,73.42
2018-11-27T03:00:14.730Z,74.22
2018-11-27T03:02:43.048Z,74.02
2018-11-27T03:05:13.708Z,74.23
2018-11-27T03:07:41.950Z,74.32
2018-11-27T03:10:11.812Z,73.60
2018-11-27T03:12:40.083Z,73.39
2018-11-27T03:15:11.744Z,72.99
2018-11-27T03:17:40.047Z,73.16
2018-11-27T03:20:09.938Z,72.87
2018-11-27T03:22:38.558Z,73.05
2018-11-27T03:25:09.070Z,73.18
2018-11-27T03:27:49.212Z,73.23
2018-11-27T03:30:19.324Z,73.35
2018-11-27T03:32:47.687Z,73.36
2018-11-27T03:35:17.008Z,73.24
2018-11-27T03:37:47.250Z,73.96
2018-11-27T03:40:16.256Z,73.35
2018-11-27T03:42:44.499Z,73.44
2018-11-27T03:45:13.608Z,73.31
2018-11-27T03:47:41.873Z,72.80
2018-11-27T03:50:14.043Z,73.00
2018-11-27T03:52:42.309Z,73.28
2018-11-27T03:55:11.535Z,73.15
2018-11-27T03:57:39.802Z,73.09
2018-11-27T04:00:13.709Z,72.94
2018-11-27T04:02:42.010Z,73.05
2018-11-27T04:05:11.199Z,73.24
2018-11-27T04:07:39.462Z,73.19
2018-11-27T04:10:16.864Z,72.31
2018-11-27T04:12:45.123Z,72.70
2018-11-27T04:15:13.832Z,73.20
2018-11-27T04:17:42.088Z,72.74
2018-11-27T04:20:11.272Z,72.65
2018-11-27T04:22:40.065Z,72.41
2018-11-27T04:25:10.031Z,73.00
2018-11-27T04:27:38.300Z,72.82
2018-11-27T04:30:09.531Z,72.78
2018-11-27T04:32:37.882Z,72.63
2018-11-27T04:35:06.754Z,72.42
2018-11-27T04:37:35.089Z,72.44
2018-11-27T04:40:03.345Z,72.57
2018-11-27T04:42:31.608Z,72.43
2018-11-27T04:44:59.920Z,72.92
2018-11-27T04:47:28.199Z,73.00
2018-11-27T04:49:56.452Z,72.86
2018-11-27T04:52:24.693Z,72.91
2018-11-27T04:54:52.955Z,72.96
2018-11-27T04:57:21.217Z,72.89
2018-11-27T04:59:49.715Z,73.40
2018-11-27T05:02:17.978Z,73.15
2018-11-27T05:04:46.239Z,73.55
2018-11-27T05:07:14.524Z,73.19
2018-11-27T05:09:42.748Z,73.38
2018-11-27T05:12:11.006Z,73.63
2018-11-27T05:14:39.262Z,73.63
2018-11-27T05:17:07.533Z,73.83
2018-11-27T05:19:35.780Z,73.38
2018-11-27T05:22:04.047Z,73.48
2018-11-27T05:24:32.292Z,73.23
2018-11-27T05:27:00.605Z,73.76
2018-11-27T05:29:28.870Z,73.12
2018-11-27T05:31:57.126Z,73.54
2018-11-27T05:34:25.356Z,73.81
2018-11-27T05:36:53.625Z,73.14
2018-11-27T05:39:21.895Z,73.19
2018-11-27T05:41:50.132Z,72.93
2018-11-27T05:44:18.384Z,73.17
2018-11-27T05:46:46.649Z,72.86
2018-11-27T05:49:14.909Z,73.34
2018-11-27T05:51:43.200Z,72.89
2018-11-27T05:54:11.493Z,73.33
2018-11-27T05:56:39.814Z,73.55
2018-11-27T05:59:08.042Z,73.36
2018-11-27T06:01:37.427Z,73.48
2018-11-27T06:04:06.205Z,73.25
2018-11-27T06:06:34.449Z,73.33
2018-11-27T06:09:02.696Z,73.59
2018-11-27T06:11:31.001Z,73.67
2018-11-27T06:13:59.275Z,73.17
2018-11-27T06:16:27.657Z,73.34
2018-11-27T06:18:55.923Z,73.36
2018-11-27T06:21:24.160Z,73.35
2018-11-27T06:23:52.987Z,73.89
2018-11-27T06:26:21.193Z,73.18
2018-11-27T06:28:49.489Z,73.44
2018-11-27T06:31:17.789Z,73.93
2018-11-27T06:33:46.043Z,73.79
2018-11-27T06:36:14.621Z,73.79
2018-11-27T06:38:42.849Z,73.34
2018-11-27T06:41:11.066Z,73.61
2018-11-27T06:43:39.433Z,74.22
2018-11-27T06:46:07.743Z,74.17
2018-11-27T06:48:36.008Z,73.92
2018-11-27T06:51:04.323Z,74.02
2018-11-27T06:53:32.588Z,74.07
2018-11-27T06:56:01.386Z,74.05
2018-11-27T06:58:30.908Z,73.19
2018-11-27T07:00:59.156Z,73.62
2018-11-27T07:03:27.416Z,73.76
2018-11-27T07:05:55.667Z,74.15
2018-11-27T07:08:24.010Z,73.85
2018-11-27T07:10:52.328Z,73.87
2018-11-27T07:13:22.360Z,74.65
2018-11-27T07:15:51.275Z,74.48
2018-11-27T07:18:19.521Z,75.30
2018-11-27T07:20:47.788Z,75.42
2018-11-27T07:23:28.759Z,75.32
2018-11-27T07:28:49.773Z,74.50
2018-11-27T07:31:18.066Z,74.23
2018-11-27T07:33:47.324Z,74.36
2018-11-27T07:36:15.606Z,74.34
2018-11-27T07:38:43.852Z,74.54
2018-11-27T07:41:12.117Z,74.67
2018-11-27T07:43:40.420Z,74.92
2018-11-27T07:49:01.979Z,73.75
2018-11-27T07:51:30.233Z,74.06
2018-11-27T07:53:58.474Z,73.86
2018-11-27T07:56:26.780Z,73.74
2018-11-27T07:58:55.038Z,74.26
2018-11-27T08:01:23.268Z,74.43
2018-11-27T08:03:51.528Z,74.15
2018-11-27T08:06:19.763Z,74.80
2018-11-27T08:08:48.017Z,75.06
2018-11-27T08:11:16.338Z,74.35
2018-11-27T08:13:44.649Z,74.19
2018-11-27T08:16:12.964Z,74.36
2018-11-27T08:18:41.274Z,74.44
2018-11-27T08:21:11.169Z,74.28
2018-11-27T08:23:39.498Z,75.04
2018-11-27T08:26:07.714Z,74.72
2018-11-27T08:28:36.054Z,75.03
2018-11-27T08:31:04.312Z,74.68
2018-11-27T08:33:32.640Z,74.92
2018-11-27T08:36:00.971Z,75.29
2018-11-27T08:38:29.346Z,74.62
2018-11-27T08:40:57.653Z,74.79
2018-11-27T08:43:26.005Z,74.68
2018-11-27T08:45:54.308Z,73.95
2018-11-27T08:48:22.609Z,73.58
2018-11-27T08:50:50.874Z,73.35
2018-11-27T08:53:19.155Z,73.93
2018-11-27T08:55:49.428Z,73.54
2018-11-27T08:58:21.307Z,74.22
2018-11-27T09:00:49.870Z,74.10
2018-11-27T09:03:18.195Z,74.27
2018-11-27T09:05:47.546Z,74.82
2018-11-27T09:08:15.835Z,74.25
2018-11-27T09:10:44.098Z,73.58
2018-11-27T09:13:12.634Z,73.64
2018-11-27T09:15:40.654Z,73.12
2018-11-27T09:18:17.578Z,73.11
2018-11-27T09:20:45.855Z,73.59
2018-11-27T09:23:15.305Z,73.65
2018-11-27T09:25:43.636Z,73.52
2018-11-27T09:28:11.924Z,73.12
2018-11-27T09:30:40.178Z,72.96
2018-11-27T09:33:08.852Z,72.58
2018-11-27T09:35:38.045Z,72.87
2018-11-27T09:38:07.367Z,72.80
2018-11-27T09:40:35.892Z,73.04
2018-11-27T09:43:04.220Z,73.49
2018-11-27T09:45:32.507Z,73.17
2018-11-27T09:48:00.920Z,73.43
2018-11-27T09:50:29.205Z,72.73
2018-11-27T09:52:57.511Z,72.80
2018-11-27T09:55:26.851Z,72.67
2018-11-27T09:57:59.087Z,73.03
2018-11-27T10:00:29.063Z,73.03
2018-11-27T10:02:59.563Z,72.33
2018-11-27T10:05:27.817Z,72.60
2018-11-27T10:07:56.122Z,72.63
2018-11-27T10:10:25.008Z,72.75
2018-11-27T10:12:53.855Z,72.71
2018-11-27T10:15:25.688Z,72.37
2018-11-27T10:17:57.084Z,72.28
2018-11-27T10:20:32.096Z,72.73
2018-11-27T10:23:00.368Z,72.66
2018-11-27T10:25:28.681Z,71.68
2018-11-27T10:27:56.958Z,72.41
2018-11-27T10:30:26.471Z,71.50
2018-11-27T10:32:55.954Z,71.73
2018-11-27T10:35:26.243Z,72.07
2018-11-27T10:37:54.535Z,72.20
2018-11-27T10:40:24.666Z,72.04
2018-11-27T10:42:53.367Z,72.58
2018-11-27T10:45:22.574Z,72.38
2018-11-27T10:47:52.956Z,72.14
2018-11-27T10:50:21.734Z,72.17
2018-11-27T10:52:54.124Z,72.28
2018-11-27T10:55:23.465Z,72.11
2018-11-27T10:57:51.826Z,71.68
2018-11-27T11:00:33.524Z,71.72
2018-11-27T11:03:07.674Z,71.85
2018-11-27T11:05:38.480Z,71.93
2018-11-27T11:08:06.773Z,71.64
2018-11-27T11:10:35.015Z,71.53
2018-11-27T11:13:03.263Z,71.36
2018-11-27T11:15:31.672Z,71.59
2018-11-27T11:17:59.920Z,71.85
2018-11-27T11:20:28.196Z,71.42
2018-11-27T11:22:56.442Z,71.12
2018-11-27T11:25:25.136Z,71.28
2018-11-27T11:27:54.891Z,70.97
2018-11-27T11:30:23.359Z,70.57
2018-11-27T11:32:51.666Z,70.90
2018-11-27T11:35:19.915Z,69.87
2018-11-27T11:37:48.480Z,69.63
2018-11-27T11:40:23.058Z,69.27
2018-11-27T11:42:54.765Z,69.22
2018-11-27T11:45:23.531Z,69.06
2018-11-27T11:47:52.035Z,68.70
2018-11-27T11:50:21.570Z,68.38
2018-11-27T11:52:55.683Z,68.25
2018-11-27T11:55:23.927Z,68.18
2018-11-27T11:57:52.528Z,67.95
2018-11-27T12:00:24.112Z,68.22
2018-11-27T12:02:52.397Z,67.68
2018-11-27T12:05:24.999Z,67.76
2018-11-27T12:07:48.953Z,67.69
2018-11-27T12:10:17.465Z,67.48
2018-11-27T12:12:46.686Z,67.82
2018-11-27T12:15:17.099Z,66.67
2018-11-27T12:17:47.100Z,66.46
2018-11-27T12:20:17.424Z,67.10
2018-11-27T12:22:49.666Z,66.65
2018-11-27T12:25:18.153Z,66.87
2018-11-27T12:27:46.650Z,67.59
2018-11-27T12:30:24.473Z,66.89
2018-11-27T12:32:54.629Z,67.04
2018-11-27T12:35:23.679Z,66.99
2018-11-27T12:38:10.348Z,66.90
2018-11-27T12:40:38.641Z,67.39
2018-11-27T12:43:06.921Z,67.81
2018-11-27T12:45:35.950Z,67.68
2018-11-27T12:48:05.356Z,68.21
2018-11-27T12:50:44.738Z,68.25
2018-11-27T12:53:16.716Z,68.75
2018-11-27T12:55:43.840Z,68.79
2018-11-27T12:58:12.145Z,68.61
2018-11-27T13:00:40.429Z,68.96
2018-11-27T13:03:08.656Z,67.46
2018-11-27T13:05:39.494Z,67.90
2018-11-27T13:08:16.862Z,68.50
2018-11-27T13:10:46.485Z,68.51
2018-11-27T13:13:14.744Z,67.98
2018-11-27T13:15:43.761Z,67.63
2018-11-27T13:18:12.103Z,68.02
2018-11-27T13:20:41.047Z,67.03
2018-11-27T13:23:09.515Z,64.32
2018-11-27T13:25:38.531Z,65.48
2018-11-27T13:28:09.123Z,65.55
2018-11-27T13:31:10.020Z,66.02
2018-11-27T13:33:54.530Z,66.00
2018-11-27T13:36:22.796Z,66.55
2018-11-27T13:38:51.135Z,66.02
2018-11-27T13:41:20.486Z,65.57
2018-11-27T13:43:48.778Z,64.07
2018-11-27T13:46:17.161Z,63.24
2018-11-27T13:48:45.571Z,63.37
2018-11-27T13:51:13.836Z,63.68
2018-11-27T13:53:42.102Z,61.78
2018-11-27T13:56:10.337Z,60.08
2018-11-27T13:58:38.589Z,58.72
2018-11-27T14:01:06.948Z,56.50
2018-11-27T14:03:35.222Z,57.21
2018-11-27T14:06:03.992Z,58.08
2018-11-27T14:08:32.328Z,58.62
2018-11-27T14:11:19.047Z,59.41
2018-11-27T14:13:43.013Z,57.98
2018-11-27T14:16:30.129Z,58.31
2018-11-27T14:18:58.369Z,57.15
2018-11-27T14:21:27.697Z,56.75
2018-11-27T14:23:56.924Z,56.97
2018-11-27T14:26:26.039Z,55.94
2018-11-27T14:28:54.481Z,55.79
2018-11-27T14:31:22.854Z,56.34
2018-11-27T14:33:51.186Z,57.01
2018-11-27T14:36:19.518Z,56.95
2018-11-27T14:38:47.846Z,58.00
2018-11-27T14:41:16.151Z,57.40
2018-11-27T14:43:44.479Z,58.14
2018-11-27T14:46:12.872Z,60.06
2018-11-27T14:51:34.442Z,65.61
2018-11-27T14:54:09.084Z,66.77
2018-11-27T14:59:29.893Z,66.42
2018-11-27T15:01:58.457Z,67.15
2018-11-27T15:04:26.794Z,67.84
2018-11-27T15:06:55.479Z,68.03
2018-11-27T15:09:23.785Z,67.94
2018-11-27T15:11:52.110Z,67.53
2018-11-27T15:14:25.200Z,67.01
2018-11-27T15:16:48.692Z,66.96
2018-11-27T15:19:17.026Z,66.25
2018-11-27T15:21:45.323Z,65.73
2018-11-27T15:24:13.573Z,65.23
2018-11-27T15:26:41.915Z,65.06
2018-11-27T15:29:10.292Z,65.16
2018-11-27T15:31:38.563Z,64.45
2018-11-27T15:34:07.156Z,65.20
2018-11-27T15:36:35.502Z,64.89
2018-11-27T15:39:03.929Z,64.42
2018-11-27T15:41:32.267Z,64.26
2018-11-27T15:44:00.566Z,64.05
2018-11-27T15:46:28.817Z,63.91
2018-11-27T15:48:57.067Z,62.14
2018-11-27T15:51:25.365Z,61.92
2018-11-27T15:53:54.019Z,62.04
2018-11-27T15:56:22.347Z,62.12
2018-11-27T15:58:50.602Z,62.99
2018-11-27T16:01:18.912Z,64.10
2018-11-27T16:03:47.265Z,64.52
2018-11-27T16:06:15.654Z,64.56
2018-11-27T16:11:37.365Z,65.90
2018-11-27T16:14:06.679Z,65.87
2018-11-27T16:16:34.999Z,65.54
2018-11-27T16:19:03.848Z,66.06
2018-11-27T16:21:32.121Z,65.77
2018-11-27T16:24:00.380Z,65.04
2018-11-27T16:26:31.381Z,65.01
2018-11-27T16:33:16.596Z,64.81
2018-11-27T16:35:46.191Z,64.61
2018-11-27T16:38:15.311Z,64.17
2018-11-27T16:40:44.610Z,63.71
2018-11-27T16:43:14.805Z,63.61
2018-11-27T16:45:43.536Z,63.43
2018-11-27T16:48:20.028Z,63.13
2018-11-27T16:50:48.599Z,63.27
2018-11-27T16:53:17.264Z,62.85
2018-11-27T16:55:46.625Z,63.42
2018-11-27T16:58:15.384Z,63.83
2018-11-27T17:00:44.893Z,63.76
2018-11-27T17:03:15.505Z,64.28
2018-11-27T17:05:45.373Z,65.12
2018-11-27T17:08:14.624Z,65.82
2018-11-27T17:10:44.514Z,66.39
2018-11-27T17:13:15.325Z,67.42
2018-11-27T17:15:43.989Z,66.45
2018-11-27T17:18:13.113Z,66.47
2018-11-27T17:20:43.674Z,65.83
2018-11-27T17:23:14.540Z,65.80
2018-11-27T17:25:42.986Z,66.07
2018-11-27T17:28:14.043Z,65.99
2018-11-27T17:30:44.974Z,66.09
2018-11-27T17:33:17.573Z,65.75
2018-11-27T17:35:45.869Z,66.17
2018-11-27T17:38:14.172Z,66.32
2018-11-27T17:40:42.505Z,65.84
2018-11-27T17:43:10.825Z,65.85
2018-11-27T17:45:39.181Z,65.48
2018-11-27T17:48:07.470Z,66.10
2018-11-27T17:50:35.784Z,66.02
2018-11-27T17:53:04.087Z,66.04
2018-11-27T17:55:32.375Z,65.89
2018-11-27T17:58:00.651Z,66.02
2018-11-27T18:00:30.687Z,65.90
2018-11-27T18:03:04.598Z,66.79
2018-11-27T18:05:33.010Z,67.39
2018-11-27T18:08:01.861Z,68.27
2018-11-27T18:10:30.327Z,68.69
2018-11-27T18:12:58.595Z,68.49
2018-11-27T18:15:26.858Z,69.11
2018-11-27T18:17:55.093Z,69.61
2018-11-27T18:20:23.331Z,69.43
2018-11-27T18:22:51.996Z,69.72
2018-11-27T18:25:43.032Z,70.16
2018-11-27T18:28:11.323Z,70.48
2018-11-27T18:30:58.297Z,71.50
2018-11-27T18:33:26.579Z,71.60
2018-11-27T18:35:54.968Z,72.20
2018-11-27T18:38:23.268Z,71.53
2018-11-27T18:40:51.572Z,73.06
2018-11-27T18:43:19.903Z,73.22
2018-11-27T18:45:48.240Z,73.38
2018-11-27T18:48:16.596Z,73.29
2018-11-27T18:50:45.114Z,73.86
2018-11-27T18:53:13.434Z,73.73
2018-11-27T18:55:41.766Z,73.78
2018-11-27T18:58:10.123Z,73.60
2018-11-27T19:00:38.463Z,73.33
2018-11-27T19:03:06.759Z,72.81
2018-11-27T19:05:35.075Z,72.95
2018-11-27T19:08:04.796Z,72.40
2018-11-27T19:10:34.630Z,72.85
2018-11-27T19:13:03.103Z,71.98
2018-11-27T19:15:35.845Z,71.86
2018-11-27T19:18:14.168Z,72.00
2018-11-27T19:20:42.494Z,71.60
2018-11-27T19:23:10.855Z,71.60
2018-11-27T19:25:39.318Z,71.55
2018-11-27T19:28:09.453Z,71.09
2018-11-27T19:30:37.725Z,71.03
2018-11-27T19:33:07.338Z,70.93
2018-11-27T19:35:35.738Z,70.78
2018-11-27T19:38:04.169Z,70.86
2018-11-27T19:40:32.473Z,70.33
2018-11-27T19:43:00.796Z,70.62
2018-11-27T19:45:29.522Z,70.22
2018-11-27T19:47:57.943Z,70.70
2018-11-27T19:50:26.368Z,70.08
2018-11-27T19:53:02.144Z,70.05
2018-11-27T19:55:30.587Z,69.69
2018-11-27T20:00:51.347Z,69.16
2018-11-27T20:03:19.711Z,68.78
2018-11-27T20:05:48.009Z,68.23
2018-11-27T20:08:17.406Z,67.88
2018-11-27T20:10:45.727Z,66.98
2018-11-27T20:13:14.070Z,67.64
2018-11-27T20:15:42.478Z,67.52
2018-11-27T20:18:10.923Z,67.01
2018-11-27T20:20:39.249Z,67.61
2018-11-27T20:23:07.622Z,67.19
2018-11-27T20:25:36.482Z,67.37
2018-11-27T20:28:05.098Z,66.85
2018-11-27T20:30:33.542Z,66.37
2018-11-27T20:33:03.174Z,66.09
2018-11-27T20:35:32.207Z,66.15
2018-11-27T20:38:02.238Z,65.74
2018-11-27T20:40:30.740Z,66.52
2018-11-27T20:42:59.211Z,64.83
2018-11-27T20:47:07.570Z,64.72
2018-11-27T20:49:34.080Z,63.88
2018-11-27T20:52:02.487Z,63.84
2018-11-27T20:54:30.939Z,63.33
2018-11-27T20:56:59.464Z,63.48
2018-11-27T20:59:28.202Z,63.14
2018-11-27T21:01:56.501Z,62.53
2018-11-27T21:04:24.857Z,62.57
2018-11-27T21:06:54.185Z,62.71
2018-11-27T21:09:23.291Z,61.36
2018-11-27T21:11:51.646Z,62.09
2018-11-27T21:14:19.927Z,61.41
2018-11-27T21:16:48.315Z,60.81
2018-11-27T21:19:16.639Z,61.47
2018-11-27T21:21:44.915Z,61.27
2018-11-27T21:24:13.355Z,61.13
2018-11-27T21:26:42.614Z,61.07
2018-11-27T21:29:10.897Z,60.96
2018-11-27T21:31:39.186Z,61.11
2018-11-27T21:34:07.506Z,61.13
2018-11-27T21:36:35.836Z,61.25
2018-11-27T21:39:04.981Z,60.82
2018-11-27T21:41:33.571Z,60.68
2018-11-27T21:44:02.004Z,60.52
2018-11-27T21:46:31.955Z,60.72
2018-11-27T21:49:00.297Z,61.30
2018-11-27T21:51:29.439Z,61.23
2018-11-27T21:53:57.716Z,60.76
2018-11-27T21:56:29.006Z,61.32
2018-11-27T21:58:57.335Z,60.64
2018-11-27T22:01:26.220Z,61.02
2018-11-27T22:03:56.051Z,61.15
2018-11-27T22:06:24.886Z,61.08
2018-11-27T22:08:53.384Z,61.26
2018-11-27T22:11:22.547Z,61.26
2018-11-27T22:13:50.858Z,60.95
2018-11-27T22:16:19.191Z,61.31
2018-11-27T22:18:47.462Z,61.10
2018-11-27T22:21:15.784Z,61.89
2018-11-27T22:23:44.045Z,62.04
2018-11-27T22:26:12.654Z,61.65
2018-11-27T22:28:40.888Z,61.64
2018-11-27T22:31:09.684Z,62.19
2018-11-27T22:33:37.966Z,62.38
2018-11-27T22:36:06.295Z,62.18
2018-11-27T22:38:34.572Z,62.87
2018-11-27T22:41:02.837Z,63.48
2018-11-27T22:43:31.107Z,63.46
2018-11-27T22:46:00.173Z,63.91
2018-11-27T22:48:29.451Z,63.66
2018-11-27T22:50:57.729Z,64.04
2018-11-27T22:53:26.003Z,64.03
2018-11-27T22:55:54.282Z,63.43
2018-11-27T22:58:22.536Z,63.99
2018-11-27T23:00:51.718Z,64.22
2018-11-27T23:06:13.286Z,63.83
2018-11-27T23:08:41.557Z,64.33
2018-11-27T23:11:09.810Z,64.55
2018-11-27T23:13:38.108Z,64.32
2018-11-27T23:16:07.090Z,64.28
2018-11-27T23:18:35.546Z,64.70
2018-11-27T23:21:03.892Z,64.44
2018-11-27T23:23:32.839Z,64.62
2018-11-27T23:26:01.192Z,64.44
2018-11-27T23:28:29.456Z,64.34
2018-11-27T23:30:57.738Z,64.61
2018-11-27T23:33:26.093Z,65.02
2018-11-27T23:35:54.347Z,64.52
2018-11-27T23:38:22.678Z,65.18
2018-11-27T23:40:50.962Z,65.34
2018-11-27T23:43:19.183Z,64.92
2018-11-27T23:45:48.119Z,65.37
2018-11-27T23:48:16.346Z,65.41
2018-11-27T23:50:44.610Z,65.34
2018-11-27T23:53:12.948Z,65.72
2018-11-27T23:55:41.280Z,66.29
2018-11-27T23:58:09.640Z,66.49
